sensor_id;sensor_type;location;lat;lon;timestamp;P1;durP1;ratioP1;P2;durP2;ratioP2
74957;SDS011;63741;42.624;26.276;2023-04-01T00:01:26;22.70;;;14.02;;
74957;SDS011;63741;42.624;26.276;2023-04-01T00:03:53;19.77;;;12.05;;
74957;SDS011;63741;42.624;26.276;2023-04-01T00:06:21;18.52;;;10.80;;
74957;SDS011;63741;42.624;26.276;2023-04-01T00:08:48;18.23;;;9.48;;
74957;SDS011;63741;42.624;26.276;2023-04-01T00:11:16;15.88;;;9.93;;
74957;SDS011;63741;42.624;26.276;2023-04-01T00:13:46;20.25;;;8.95;;
74957;SDS011;63741;42.624;26.276;2023-04-01T00:16:13;19.27;;;10.32;;
74957;SDS011;63741;42.624;26.276;2023-04-01T00:18:44;18.20;;;11.60;;
74957;SDS011;63741;42.624;26.276;2023-04-01T00:21:14;18.92;;;11.95;;
74957;SDS011;63741;42.624;26.276;2023-04-01T00:23:42;21.80;;;12.95;;
74957;SDS011;63741;42.624;26.276;2023-04-01T00:26:10;21.38;;;12.93;;
74957;SDS011;63741;42.624;26.276;2023-04-01T00:28:39;22.55;;;13.82;;
74957;SDS011;63741;42.624;26.276;2023-04-01T00:31:07;19.60;;;12.98;;
74957;SDS011;63741;42.624;26.276;2023-04-01T00:33:36;23.40;;;13.35;;
74957;SDS011;63741;42.624;26.276;2023-04-01T00:36:14;22.00;;;13.57;;
74957;SDS011;63741;42.624;26.276;2023-04-01T00:38:43;21.75;;;13.10;;
74957;SDS011;63741;42.624;26.276;2023-04-01T00:41:11;19.10;;;12.90;;
74957;SDS011;63741;42.624;26.276;2023-04-01T00:43:41;19.35;;;12.63;;
74957;SDS011;63741;42.624;26.276;2023-04-01T00:46:10;24.15;;;13.25;;
74957;SDS011;63741;42.624;26.276;2023-04-01T00:48:47;19.42;;;12.05;;
74957;SDS011;63741;42.624;26.276;2023-04-01T00:51:18;21.23;;;12.77;;
74957;SDS011;63741;42.624;26.276;2023-04-01T00:53:50;20.58;;;12.43;;
74957;SDS011;63741;42.624;26.276;2023-04-01T00:56:43;20.52;;;13.38;;
74957;SDS011;63741;42.624;26.276;2023-04-01T00:59:23;23.23;;;12.23;;
74957;SDS011;63741;42.624;26.276;2023-04-01T01:01:53;19.15;;;13.00;;
74957;SDS011;63741;42.624;26.276;2023-04-01T01:04:27;19.83;;;11.85;;
74957;SDS011;63741;42.624;26.276;2023-04-01T01:07:03;18.52;;;10.85;;
74957;SDS011;63741;42.624;26.276;2023-04-01T01:09:56;16.45;;;10.10;;
74957;SDS011;63741;42.624;26.276;2023-04-01T01:12:40;16.77;;;9.13;;
74957;SDS011;63741;42.624;26.276;2023-04-01T01:18:23;15.10;;;9.38;;
74957;SDS011;63741;42.624;26.276;2023-04-01T01:20:56;14.98;;;9.50;;
74957;SDS011;63741;42.624;26.276;2023-04-01T01:37:46;19.58;;;10.93;;
74957;SDS011;63741;42.624;26.276;2023-04-01T01:40:18;19.60;;;11.52;;
74957;SDS011;63741;42.624;26.276;2023-04-01T01:42:48;18.25;;;12.38;;
74957;SDS011;63741;42.624;26.276;2023-04-01T01:45:18;18.00;;;11.07;;
74957;SDS011;63741;42.624;26.276;2023-04-01T01:47:48;18.50;;;10.98;;
74957;SDS011;63741;42.624;26.276;2023-04-01T01:50:17;20.15;;;10.70;;
74957;SDS011;63741;42.624;26.276;2023-04-01T01:52:45;19.83;;;11.13;;
74957;SDS011;63741;42.624;26.276;2023-04-01T01:55:26;20.45;;;11.15;;
74957;SDS011;63741;42.624;26.276;2023-04-01T02:00:53;18.27;;;11.55;;
74957;SDS011;63741;42.624;26.276;2023-04-01T02:03:24;18.40;;;10.77;;
74957;SDS011;63741;42.624;26.276;2023-04-01T02:05:55;17.65;;;10.10;;
74957;SDS011;63741;42.624;26.276;2023-04-01T02:08:36;17.10;;;10.25;;
74957;SDS011;63741;42.624;26.276;2023-04-01T02:11:10;20.00;;;10.10;;
74957;SDS011;63741;42.624;26.276;2023-04-01T02:13:50;17.55;;;8.90;;
74957;SDS011;63741;42.624;26.276;2023-04-01T02:16:22;15.25;;;9.35;;
74957;SDS011;63741;42.624;26.276;2023-04-01T02:18:53;17.77;;;9.40;;
74957;SDS011;63741;42.624;26.276;2023-04-01T02:21:23;19.08;;;9.88;;
74957;SDS011;63741;42.624;26.276;2023-04-01T02:23:54;14.82;;;8.48;;
74957;SDS011;63741;42.624;26.276;2023-04-01T02:26:23;14.13;;;8.50;;
74957;SDS011;63741;42.624;26.276;2023-04-01T02:28:55;13.18;;;7.93;;
74957;SDS011;63741;42.624;26.276;2023-04-01T02:31:23;13.68;;;7.65;;
74957;SDS011;63741;42.624;26.276;2023-04-01T02:33:52;13.40;;;7.78;;
74957;SDS011;63741;42.624;26.276;2023-04-01T02:36:19;13.73;;;7.18;;
74957;SDS011;63741;42.624;26.276;2023-04-01T02:38:47;13.27;;;7.50;;
74957;SDS011;63741;42.624;26.276;2023-04-01T02:41:16;12.80;;;7.15;;
74957;SDS011;63741;42.624;26.276;2023-04-01T02:43:43;10.55;;;6.75;;
74957;SDS011;63741;42.624;26.276;2023-04-01T02:46:10;10.30;;;6.22;;
74957;SDS011;63741;42.624;26.276;2023-04-01T02:48:37;12.13;;;6.72;;
74957;SDS011;63741;42.624;26.276;2023-04-01T02:51:04;12.57;;;7.22;;
74957;SDS011;63741;42.624;26.276;2023-04-01T02:53:31;12.30;;;6.53;;
74957;SDS011;63741;42.624;26.276;2023-04-01T02:55:58;13.10;;;6.55;;
74957;SDS011;63741;42.624;26.276;2023-04-01T02:58:25;29.10;;;6.95;;
74957;SDS011;63741;42.624;26.276;2023-04-01T03:00:52;18.55;;;6.88;;
74957;SDS011;63741;42.624;26.276;2023-04-01T03:03:19;13.30;;;6.85;;
74957;SDS011;63741;42.624;26.276;2023-04-01T03:05:46;12.00;;;7.70;;
74957;SDS011;63741;42.624;26.276;2023-04-01T03:08:13;11.95;;;7.25;;
74957;SDS011;63741;42.624;26.276;2023-04-01T03:10:39;14.38;;;7.45;;
74957;SDS011;63741;42.624;26.276;2023-04-01T03:13:06;11.63;;;8.15;;
74957;SDS011;63741;42.624;26.276;2023-04-01T03:15:33;14.80;;;9.48;;
74957;SDS011;63741;42.624;26.276;2023-04-01T03:18:00;16.17;;;10.23;;
74957;SDS011;63741;42.624;26.276;2023-04-01T03:20:27;20.08;;;10.45;;
74957;SDS011;63741;42.624;26.276;2023-04-01T03:22:54;18.40;;;10.43;;
74957;SDS011;63741;42.624;26.276;2023-04-01T03:25:21;19.27;;;10.38;;
74957;SDS011;63741;42.624;26.276;2023-04-01T03:27:49;16.30;;;8.15;;
74957;SDS011;63741;42.624;26.276;2023-04-01T03:30:16;16.02;;;8.88;;
74957;SDS011;63741;42.624;26.276;2023-04-01T03:32:49;13.48;;;7.32;;
74957;SDS011;63741;42.624;26.276;2023-04-01T03:35:15;21.08;;;7.93;;
74957;SDS011;63741;42.624;26.276;2023-04-01T03:37:44;13.95;;;7.32;;
74957;SDS011;63741;42.624;26.276;2023-04-01T03:40:11;14.18;;;7.50;;
74957;SDS011;63741;42.624;26.276;2023-04-01T03:42:38;25.75;;;7.97;;
74957;SDS011;63741;42.624;26.276;2023-04-01T03:45:06;14.88;;;7.68;;
74957;SDS011;63741;42.624;26.276;2023-04-01T03:47:33;15.50;;;7.47;;
74957;SDS011;63741;42.624;26.276;2023-04-01T03:50:00;12.90;;;6.90;;
74957;SDS011;63741;42.624;26.276;2023-04-01T03:52:27;13.77;;;7.78;;
74957;SDS011;63741;42.624;26.276;2023-04-01T03:54:54;15.75;;;7.43;;
74957;SDS011;63741;42.624;26.276;2023-04-01T03:57:21;16.55;;;8.25;;
74957;SDS011;63741;42.624;26.276;2023-04-01T03:59:48;15.00;;;8.32;;
74957;SDS011;63741;42.624;26.276;2023-04-01T04:02:15;14.88;;;8.95;;
74957;SDS011;63741;42.624;26.276;2023-04-01T04:04:42;14.80;;;8.80;;
74957;SDS011;63741;42.624;26.276;2023-04-01T04:07:10;16.00;;;7.97;;
74957;SDS011;63741;42.624;26.276;2023-04-01T04:10:12;15.02;;;7.63;;
74957;SDS011;63741;42.624;26.276;2023-04-01T04:12:39;12.35;;;6.18;;
74957;SDS011;63741;42.624;26.276;2023-04-01T04:15:07;11.80;;;6.68;;
74957;SDS011;63741;42.624;26.276;2023-04-01T04:17:35;15.75;;;7.10;;
74957;SDS011;63741;42.624;26.276;2023-04-01T04:20:02;23.73;;;7.80;;
74957;SDS011;63741;42.624;26.276;2023-04-01T04:22:30;22.65;;;7.85;;
74957;SDS011;63741;42.624;26.276;2023-04-01T04:24:57;17.88;;;8.55;;
74957;SDS011;63741;42.624;26.276;2023-04-01T04:27:23;13.32;;;7.65;;
74957;SDS011;63741;42.624;26.276;2023-04-01T04:30:05;91.63;;;33.58;;
74957;SDS011;63741;42.624;26.276;2023-04-01T04:32:33;69.32;;;32.72;;
74957;SDS011;63741;42.624;26.276;2023-04-01T04:35:01;52.40;;;25.63;;
74957;SDS011;63741;42.624;26.276;2023-04-01T04:37:28;26.27;;;11.73;;
74957;SDS011;63741;42.624;26.276;2023-04-01T04:39:55;35.50;;;9.60;;
74957;SDS011;63741;42.624;26.276;2023-04-01T04:42:22;19.98;;;12.38;;
74957;SDS011;63741;42.624;26.276;2023-04-01T04:44:54;25.33;;;14.48;;
74957;SDS011;63741;42.624;26.276;2023-04-01T04:47:21;16.48;;;8.73;;
74957;SDS011;63741;42.624;26.276;2023-04-01T04:49:48;16.67;;;8.98;;
74957;SDS011;63741;42.624;26.276;2023-04-01T04:52:15;14.52;;;8.55;;
74957;SDS011;63741;42.624;26.276;2023-04-01T04:54:42;20.38;;;9.00;;
74957;SDS011;63741;42.624;26.276;2023-04-01T04:57:09;25.85;;;10.73;;
74957;SDS011;63741;42.624;26.276;2023-04-01T04:59:43;18.55;;;10.65;;
74957;SDS011;63741;42.624;26.276;2023-04-01T05:02:14;20.67;;;10.90;;
74957;SDS011;63741;42.624;26.276;2023-04-01T05:04:41;21.70;;;9.95;;
74957;SDS011;63741;42.624;26.276;2023-04-01T05:07:09;20.15;;;8.25;;
74957;SDS011;63741;42.624;26.276;2023-04-01T05:09:37;16.23;;;7.78;;
74957;SDS011;63741;42.624;26.276;2023-04-01T05:12:04;13.57;;;7.88;;
74957;SDS011;63741;42.624;26.276;2023-04-01T05:14:56;28.27;;;9.32;;
74957;SDS011;63741;42.624;26.276;2023-04-01T05:17:24;19.90;;;10.98;;
74957;SDS011;63741;42.624;26.276;2023-04-01T05:19:52;18.05;;;8.82;;
74957;SDS011;63741;42.624;26.276;2023-04-01T05:22:19;19.35;;;6.55;;
74957;SDS011;63741;42.624;26.276;2023-04-01T05:24:47;12.25;;;6.72;;
74957;SDS011;63741;42.624;26.276;2023-04-01T05:27:14;12.57;;;5.63;;
74957;SDS011;63741;42.624;26.276;2023-04-01T05:29:42;16.20;;;6.15;;
74957;SDS011;63741;42.624;26.276;2023-04-01T05:32:25;8.70;;;5.22;;
74957;SDS011;63741;42.624;26.276;2023-04-01T05:34:52;11.23;;;5.60;;
74957;SDS011;63741;42.624;26.276;2023-04-01T05:37:19;9.93;;;5.97;;
74957;SDS011;63741;42.624;26.276;2023-04-01T05:39:46;12.30;;;6.90;;
74957;SDS011;63741;42.624;26.276;2023-04-01T05:42:13;14.07;;;6.20;;
74957;SDS011;63741;42.624;26.276;2023-04-01T05:44:42;15.80;;;6.22;;
74957;SDS011;63741;42.624;26.276;2023-04-01T05:47:27;14.57;;;6.90;;
74957;SDS011;63741;42.624;26.276;2023-04-01T05:49:54;19.15;;;6.32;;
74957;SDS011;63741;42.624;26.276;2023-04-01T05:52:21;14.82;;;6.00;;
74957;SDS011;63741;42.624;26.276;2023-04-01T05:54:48;10.38;;;5.50;;
74957;SDS011;63741;42.624;26.276;2023-04-01T05:57:16;12.63;;;5.47;;
74957;SDS011;63741;42.624;26.276;2023-04-01T05:59:44;11.75;;;5.35;;
74957;SDS011;63741;42.624;26.276;2023-04-01T06:02:12;11.15;;;5.30;;
74957;SDS011;63741;42.624;26.276;2023-04-01T06:04:39;11.82;;;5.15;;
74957;SDS011;63741;42.624;26.276;2023-04-01T06:07:14;10.43;;;4.78;;
74957;SDS011;63741;42.624;26.276;2023-04-01T06:09:42;10.32;;;5.00;;
74957;SDS011;63741;42.624;26.276;2023-04-01T06:31:20;12.52;;;4.63;;
74957;SDS011;63741;42.624;26.276;2023-04-01T06:52:13;19.73;;;8.05;;
74957;SDS011;63741;42.624;26.276;2023-04-01T07:01:10;14.50;;;6.45;;
74957;SDS011;63741;42.624;26.276;2023-04-01T07:03:44;15.63;;;6.38;;
74957;SDS011;63741;42.624;26.276;2023-04-01T07:06:24;16.05;;;5.47;;
74957;SDS011;63741;42.624;26.276;2023-04-01T07:08:55;13.65;;;5.78;;
74957;SDS011;63741;42.624;26.276;2023-04-01T07:11:49;12.18;;;4.97;;
74957;SDS011;63741;42.624;26.276;2023-04-01T07:14:39;11.18;;;4.80;;
74957;SDS011;63741;42.624;26.276;2023-04-01T07:17:14;14.00;;;5.40;;
74957;SDS011;63741;42.624;26.276;2023-04-01T07:19:47;13.23;;;5.20;;
74957;SDS011;63741;42.624;26.276;2023-04-01T07:25:15;18.38;;;9.13;;
74957;SDS011;63741;42.624;26.276;2023-04-01T07:27:52;21.48;;;9.43;;
74957;SDS011;63741;42.624;26.276;2023-04-01T07:30:23;14.23;;;4.70;;
74957;SDS011;63741;42.624;26.276;2023-04-01T07:35:27;19.77;;;7.50;;
74957;SDS011;63741;42.624;26.276;2023-04-01T07:38:09;13.65;;;4.85;;
74957;SDS011;63741;42.624;26.276;2023-04-01T07:52:16;13.77;;;7.13;;
74957;SDS011;63741;42.624;26.276;2023-04-01T08:08:43;10.57;;;4.70;;
74957;SDS011;63741;42.624;26.276;2023-04-01T08:11:46;11.70;;;4.43;;
74957;SDS011;63741;42.624;26.276;2023-04-01T08:15:05;12.48;;;4.82;;
74957;SDS011;63741;42.624;26.276;2023-04-01T08:21:14;11.52;;;4.22;;
74957;SDS011;63741;42.624;26.276;2023-04-01T08:23:46;12.52;;;3.90;;
74957;SDS011;63741;42.624;26.276;2023-04-01T08:26:19;9.98;;;4.00;;
74957;SDS011;63741;42.624;26.276;2023-04-01T08:29:18;11.40;;;4.20;;
74957;SDS011;63741;42.624;26.276;2023-04-01T08:37:56;33.03;;;20.85;;
74957;SDS011;63741;42.624;26.276;2023-04-01T08:46:34;10.45;;;3.67;;
74957;SDS011;63741;42.624;26.276;2023-04-01T08:55:28;7.57;;;3.22;;
74957;SDS011;63741;42.624;26.276;2023-04-01T09:01:10;16.98;;;6.70;;
74957;SDS011;63741;42.624;26.276;2023-04-01T09:03:51;7.45;;;2.95;;
74957;SDS011;63741;42.624;26.276;2023-04-01T09:12:06;17.63;;;3.15;;
74957;SDS011;63741;42.624;26.276;2023-04-01T09:20:44;7.00;;;2.63;;
74957;SDS011;63741;42.624;26.276;2023-04-01T09:23:26;12.73;;;4.05;;
74957;SDS011;63741;42.624;26.276;2023-04-01T09:37:44;9.90;;;3.10;;
74957;SDS011;63741;42.624;26.276;2023-04-01T09:46:10;14.00;;;2.92;;
74957;SDS011;63741;42.624;26.276;2023-04-01T09:57:33;7.50;;;2.88;;
74957;SDS011;63741;42.624;26.276;2023-04-01T10:51:23;37.92;;;4.35;;
74957;SDS011;63741;42.624;26.276;2023-04-01T11:18:12;16.63;;;5.30;;
74957;SDS011;63741;42.624;26.276;2023-04-01T11:43:32;16.35;;;4.30;;
74957;SDS011;63741;42.624;26.276;2023-04-01T12:03:50;14.57;;;3.33;;
74957;SDS011;63741;42.624;26.276;2023-04-01T12:11:41;12.43;;;3.58;;
74957;SDS011;63741;42.624;26.276;2023-04-01T12:17:04;11.85;;;3.50;;
74957;SDS011;63741;42.624;26.276;2023-04-01T12:41:54;18.55;;;4.20;;
74957;SDS011;63741;42.624;26.276;2023-04-01T12:55:38;33.50;;;4.00;;
74957;SDS011;63741;42.624;26.276;2023-04-01T13:25:42;17.60;;;2.95;;
74957;SDS011;63741;42.624;26.276;2023-04-01T13:31:38;22.02;;;2.83;;
74957;SDS011;63741;42.624;26.276;2023-04-01T13:34:14;22.90;;;3.20;;
74957;SDS011;63741;42.624;26.276;2023-04-01T13:45:08;23.23;;;3.50;;
74957;SDS011;63741;42.624;26.276;2023-04-01T13:50:17;24.52;;;3.83;;
74957;SDS011;63741;42.624;26.276;2023-04-01T14:07:16;30.63;;;3.70;;
74957;SDS011;63741;42.624;26.276;2023-04-01T14:10:23;33.58;;;3.75;;
74957;SDS011;63741;42.624;26.276;2023-04-01T14:13:18;19.67;;;3.22;;
74957;SDS011;63741;42.624;26.276;2023-04-01T14:21:17;25.10;;;3.55;;
74957;SDS011;63741;42.624;26.276;2023-04-01T14:29:45;36.17;;;3.50;;
74957;SDS011;63741;42.624;26.276;2023-04-01T14:49:47;23.13;;;3.58;;
74957;SDS011;63741;42.624;26.276;2023-04-01T14:52:33;15.43;;;2.60;;
74957;SDS011;63741;42.624;26.276;2023-04-01T14:55:18;25.02;;;3.35;;
74957;SDS011;63741;42.624;26.276;2023-04-01T14:57:59;20.05;;;3.58;;
74957;SDS011;63741;42.624;26.276;2023-04-01T15:03:31;17.85;;;3.60;;
74957;SDS011;63741;42.624;26.276;2023-04-01T15:09:17;19.45;;;2.83;;
74957;SDS011;63741;42.624;26.276;2023-04-01T15:11:54;24.15;;;3.35;;
74957;SDS011;63741;42.624;26.276;2023-04-01T15:17:24;19.15;;;2.72;;
74957;SDS011;63741;42.624;26.276;2023-04-01T15:28:35;26.80;;;3.10;;
74957;SDS011;63741;42.624;26.276;2023-04-01T15:31:15;23.45;;;3.42;;
74957;SDS011;63741;42.624;26.276;2023-04-01T15:33:49;18.27;;;3.17;;
74957;SDS011;63741;42.624;26.276;2023-04-01T15:37:15;28.42;;;3.10;;
74957;SDS011;63741;42.624;26.276;2023-04-01T15:42:39;20.63;;;3.53;;
74957;SDS011;63741;42.624;26.276;2023-04-01T15:45:57;25.98;;;3.17;;
74957;SDS011;63741;42.624;26.276;2023-04-01T16:13:59;3.90;;;1.08;;
74957;SDS011;63741;42.624;26.276;2023-04-01T16:16:40;1.95;;;1.13;;
74957;SDS011;63741;42.624;26.276;2023-04-01T16:22:02;6.18;;;1.70;;
74957;SDS011;63741;42.624;26.276;2023-04-01T16:27:13;2.50;;;1.20;;
74957;SDS011;63741;42.624;26.276;2023-04-01T16:37:58;3.25;;;1.38;;
74957;SDS011;63741;42.624;26.276;2023-04-01T16:43:38;2.88;;;1.48;;
74957;SDS011;63741;42.624;26.276;2023-04-01T16:51:16;3.22;;;1.35;;
74957;SDS011;63741;42.624;26.276;2023-04-01T16:56:40;2.95;;;1.40;;
74957;SDS011;63741;42.624;26.276;2023-04-01T16:59:16;3.05;;;1.30;;
74957;SDS011;63741;42.624;26.276;2023-04-01T17:12:56;5.00;;;2.70;;
74957;SDS011;63741;42.624;26.276;2023-04-01T17:16:05;2.83;;;1.60;;
74957;SDS011;63741;42.624;26.276;2023-04-01T17:41:08;5.47;;;2.88;;
74957;SDS011;63741;42.624;26.276;2023-04-01T17:46:54;1.33;;;0.52;;
74957;SDS011;63741;42.624;26.276;2023-04-01T17:49:33;1.58;;;0.70;;
74957;SDS011;63741;42.624;26.276;2023-04-01T17:57:54;2.25;;;0.75;;
74957;SDS011;63741;42.624;26.276;2023-04-01T18:09:28;0.80;;;0.50;;
74957;SDS011;63741;42.624;26.276;2023-04-01T18:17:43;0.90;;;0.50;;
74957;SDS011;63741;42.624;26.276;2023-04-01T18:25:52;1.90;;;1.50;;
74957;SDS011;63741;42.624;26.276;2023-04-01T18:28:38;2.10;;;0.77;;
74957;SDS011;63741;42.624;26.276;2023-04-01T18:31:15;1.90;;;0.90;;
74957;SDS011;63741;42.624;26.276;2023-04-01T18:36:19;1.85;;;0.90;;
74957;SDS011;63741;42.624;26.276;2023-04-01T18:38:55;2.30;;;1.40;;
74957;SDS011;63741;42.624;26.276;2023-04-01T18:41:47;2.30;;;1.05;;
74957;SDS011;63741;42.624;26.276;2023-04-01T18:47:15;7.82;;;4.18;;
74957;SDS011;63741;42.624;26.276;2023-04-01T18:50:18;7.15;;;4.10;;
74957;SDS011;63741;42.624;26.276;2023-04-01T18:52:56;8.80;;;5.03;;
74957;SDS011;63741;42.624;26.276;2023-04-01T18:55:39;2.15;;;1.10;;
74957;SDS011;63741;42.624;26.276;2023-04-01T18:58:16;4.20;;;2.80;;
74957;SDS011;63741;42.624;26.276;2023-04-01T19:03:23;3.13;;;1.55;;
74957;SDS011;63741;42.624;26.276;2023-04-01T19:06:17;6.43;;;3.08;;
74957;SDS011;63741;42.624;26.276;2023-04-01T19:08:49;5.15;;;3.38;;
74957;SDS011;63741;42.624;26.276;2023-04-01T19:16:42;8.35;;;4.63;;
74957;SDS011;63741;42.624;26.276;2023-04-01T19:21:58;6.75;;;4.57;;
74957;SDS011;63741;42.624;26.276;2023-04-01T19:24:49;7.70;;;4.65;;
74957;SDS011;63741;42.624;26.276;2023-04-01T19:38:39;6.22;;;3.55;;
74957;SDS011;63741;42.624;26.276;2023-04-01T19:41:14;4.65;;;1.80;;
74957;SDS011;63741;42.624;26.276;2023-04-01T19:46:55;1.55;;;1.00;;
74957;SDS011;63741;42.624;26.276;2023-04-01T19:55:40;2.15;;;1.05;;
74957;SDS011;63741;42.624;26.276;2023-04-01T19:58:23;1.92;;;1.15;;
74957;SDS011;63741;42.624;26.276;2023-04-01T20:01:24;2.45;;;1.00;;
74957;SDS011;63741;42.624;26.276;2023-04-01T20:06:57;2.88;;;1.30;;
74957;SDS011;63741;42.624;26.276;2023-04-01T20:12:17;1.35;;;0.70;;
74957;SDS011;63741;42.624;26.276;2023-04-01T20:14:58;1.30;;;0.73;;
74957;SDS011;63741;42.624;26.276;2023-04-01T20:17:31;1.38;;;0.60;;
74957;SDS011;63741;42.624;26.276;2023-04-01T20:31:43;2.55;;;1.60;;
74957;SDS011;63741;42.624;26.276;2023-04-01T20:34:39;2.63;;;1.30;;
74957;SDS011;63741;42.624;26.276;2023-04-01T20:51:09;3.10;;;1.85;;
74957;SDS011;63741;42.624;26.276;2023-04-01T20:56:29;13.23;;;7.13;;
74957;SDS011;63741;42.624;26.276;2023-04-01T21:17:58;2.03;;;1.15;;
74957;SDS011;63741;42.624;26.276;2023-04-01T21:31:36;1.50;;;1.05;;
74957;SDS011;63741;42.624;26.276;2023-04-01T21:34:07;2.60;;;1.27;;
74957;SDS011;63741;42.624;26.276;2023-04-01T21:45:43;1.23;;;0.80;;
74957;SDS011;63741;42.624;26.276;2023-04-01T22:05:56;1.50;;;0.70;;
74957;SDS011;63741;42.624;26.276;2023-04-01T22:17:19;2.55;;;1.08;;
74957;SDS011;63741;42.624;26.276;2023-04-01T22:20:03;1.85;;;1.20;;
74957;SDS011;63741;42.624;26.276;2023-04-01T22:25:25;12.13;;;7.45;;
74957;SDS011;63741;42.624;26.276;2023-04-01T22:30:52;3.97;;;2.53;;
74957;SDS011;63741;42.624;26.276;2023-04-01T22:36:37;9.07;;;4.30;;
74957;SDS011;63741;42.624;26.276;2023-04-01T22:39:18;20.17;;;8.65;;
74957;SDS011;63741;42.624;26.276;2023-04-01T22:50:17;4.97;;;2.40;;
74957;SDS011;63741;42.624;26.276;2023-04-01T22:52:47;3.70;;;2.30;;
74957;SDS011;63741;42.624;26.276;2023-04-01T22:55:28;5.10;;;3.13;;
74957;SDS011;63741;42.624;26.276;2023-04-01T22:58:03;6.20;;;3.42;;
74957;SDS011;63741;42.624;26.276;2023-04-01T23:00:43;3.42;;;1.40;;
74957;SDS011;63741;42.624;26.276;2023-04-01T23:05:58;8.55;;;4.60;;
74957;SDS011;63741;42.624;26.276;2023-04-01T23:11:28;1.85;;;1.10;;
74957;SDS011;63741;42.624;26.276;2023-04-01T23:16:48;3.75;;;1.33;;
74957;SDS011;63741;42.624;26.276;2023-04-01T23:19:30;2.03;;;1.20;;
74957;SDS011;63741;42.624;26.276;2023-04-01T23:22:12;2.38;;;1.70;;
74957;SDS011;63741;42.624;26.276;2023-04-01T23:24:53;10.20;;;5.18;;
74957;SDS011;63741;42.624;26.276;2023-04-01T23:33:10;3.30;;;1.50;;
74957;SDS011;63741;42.624;26.276;2023-04-01T23:38:36;2.55;;;1.80;;
74957;SDS011;63741;42.624;26.276;2023-04-01T23:41:06;3.63;;;1.90;;
74957;SDS011;63741;42.624;26.276;2023-04-01T23:43:38;3.85;;;2.00;;
74957;SDS011;63741;42.624;26.276;2023-04-01T23:46:08;3.47;;;1.92;;
74957;SDS011;63741;42.624;26.276;2023-04-01T23:48:40;4.35;;;2.47;;
74957;SDS011;63741;42.624;26.276;2023-04-01T23:51:28;4.45;;;2.80;;
74957;SDS011;63741;42.624;26.276;2023-04-01T23:54:04;2.25;;;1.30;;
74957;SDS011;63741;42.624;26.276;2023-04-01T23:56:51;1.92;;;1.27;;
74957;SDS011;63741;42.624;26.276;2023-04-01T23:59:28;1.48;;;0.90;;
